Главная страница
METAR-TAF:

METAR-TAF

Аэропорты :

Любек, Германия

широта: 53-49N, долгота: 010-42E, высота над уровнем моря: 14 м

Текущие метеонаблюдения

Эта сводка был подготовлена 9 часа и 25 минут назад, в 17:50 UTC
Ветер 4 Узел от западно-северо-западный, изменяющийся между западный-юго-западный и северно-северо-западный
Температура 9°C
Влажность 61%
Давление 1029 hPa
Видимость 10 км и более
Нет облачности ниже 1500 м, и нет кучево-дождевой облачности

METAR: EDHL 231750Z 29004KT 250V340 CAVOK 09/02 Q1029

Время: 04:15 (03:15 UTC)

Прогноз

Эта сводка был подготовлена 10 часа и 15 минут назад, в 17:00 UTC
Прогноз действительный с 23-го 18 UTC до 23-го 21 UTC
Ветер 5 Узел от западно-северо-западный
Видимость 10 км и более
небольшая облачность на высоте 3000 фута
изменения
С 23-го 18 UTC до 23-го 21 UTC
Ветер 3 Узел переменных направлений

TAF: EDHL 231700Z 2318/2321 29005KT 9999 FEW030 BECMG 2318/2321 VRB03KT

Метеонаблюдения и прогнозы для более 4000 аэропортов (сводки METAR и TAF).

Имеющиеся станции представлены на карте желтыми и красными точками.

Чтобы увидеть название станции, наведите на нее мышь.

Затем щелкните, чтобы увидеть метеонаблюдения и метеопрогнозы.

Управление картой: чтобы увеличить масштаб, щелкните зеленые кнопки с черным крестиком; чтобы уменьшить масштаб, щелкните зеленую кнопку с тире; для просмотра соседних карт щелкайте зеленые стрелки.


METAR-TAF: